createdAt,value
2023-05-05T00:01:09.106Z,71.97
2023-05-05T00:03:35.779Z,72.14
2023-05-05T00:06:02.491Z,72.24
2023-05-05T00:08:28.962Z,72.31
2023-05-05T00:10:56.539Z,72.48
2023-05-05T00:13:23.412Z,72.67
2023-05-05T00:15:51.916Z,73.08
2023-05-05T00:18:18.817Z,73.25
2023-05-05T00:20:48.858Z,73.07
2023-05-05T00:23:16.218Z,72.95
2023-05-05T00:25:42.813Z,73.16
2023-05-05T00:28:09.393Z,73.39
2023-05-05T00:30:36.177Z,73.31
2023-05-05T00:33:02.752Z,73.70
2023-05-05T00:35:29.362Z,73.98
2023-05-05T00:37:55.816Z,74.07
2023-05-05T00:40:22.488Z,74.01
2023-05-05T00:42:52.496Z,74.11
2023-05-05T00:45:20.173Z,74.47
2023-05-05T00:47:49.282Z,74.60
2023-05-05T00:50:25.208Z,74.79
2023-05-05T00:52:54.411Z,74.94
2023-05-05T00:55:20.968Z,75.03
2023-05-05T00:57:49.070Z,74.74
2023-05-05T01:00:16.695Z,74.65
2023-05-05T01:02:44.225Z,74.54
2023-05-05T01:05:11.553Z,74.18
2023-05-05T01:07:52.444Z,74.07
2023-05-05T01:10:43.087Z,74.04
2023-05-05T01:13:42.778Z,74.01
2023-05-05T01:16:20.150Z,73.92
2023-05-05T01:19:00.913Z,73.83
2023-05-05T01:21:43.088Z,74.03
2023-05-05T01:24:38.875Z,74.25
2023-05-05T01:27:39.400Z,74.25
2023-05-05T01:30:36.872Z,74.60
2023-05-05T01:33:08.624Z,74.56
2023-05-05T01:35:43.865Z,74.89
2023-05-05T01:38:41.156Z,75.01
2023-05-05T01:41:18.297Z,74.99
2023-05-05T01:43:48.479Z,74.75
2023-05-05T01:46:16.012Z,74.97
2023-05-05T01:48:44.215Z,75.10
2023-05-05T01:51:13.061Z,75.18
2023-05-05T01:53:41.453Z,75.30
2023-05-05T01:56:09.482Z,75.63
2023-05-05T01:58:37.888Z,75.76
2023-05-05T02:01:05.549Z,75.75
2023-05-05T02:03:34.069Z,75.88
2023-05-05T02:06:01.536Z,75.83
2023-05-05T02:08:29.917Z,76.16
2023-05-05T02:10:56.418Z,76.32
2023-05-05T02:13:26.045Z,76.39
2023-05-05T02:15:53.385Z,76.42
2023-05-05T02:18:22.057Z,76.58
2023-05-05T02:20:48.731Z,76.88
2023-05-05T02:23:15.132Z,77.26
2023-05-05T02:25:49.919Z,77.01
2023-05-05T02:28:22.956Z,77.42
2023-05-05T02:30:57.511Z,77.36
2023-05-05T02:33:26.433Z,77.23
2023-05-05T02:35:55.131Z,77.12
2023-05-05T02:38:26.444Z,76.71
2023-05-05T02:40:56.598Z,77.61
2023-05-05T02:43:25.737Z,77.30
2023-05-05T02:45:52.216Z,77.24
2023-05-05T02:48:18.632Z,77.07
2023-05-05T02:50:45.056Z,77.36
2023-05-05T02:53:11.636Z,77.29
2023-05-05T02:55:53.791Z,77.12
2023-05-05T02:58:46.139Z,76.91
2023-05-05T03:01:34.399Z,76.88
2023-05-05T03:04:07.653Z,76.74
2023-05-05T03:06:41.141Z,76.60
2023-05-05T03:09:16.975Z,76.50
2023-05-05T03:12:05.402Z,76.38
2023-05-05T03:14:37.169Z,76.43
2023-05-05T03:17:05.441Z,76.48
2023-05-05T03:19:32.192Z,76.66
2023-05-05T03:21:59.249Z,76.83
2023-05-05T03:24:25.627Z,77.01
2023-05-05T03:26:52.120Z,77.12
2023-05-05T03:29:18.512Z,77.28
2023-05-05T03:31:45.032Z,77.40
2023-05-05T03:34:11.518Z,77.64
2023-05-05T03:36:39.030Z,77.57
2023-05-05T03:39:05.698Z,77.59
2023-05-05T03:41:32.215Z,77.38
2023-05-05T03:43:58.645Z,77.23
2023-05-05T03:46:25.341Z,77.33
2023-05-05T03:48:51.836Z,77.09
2023-05-05T03:51:18.459Z,76.82
2023-05-05T03:53:45.021Z,76.80
2023-05-05T03:56:11.447Z,76.68
2023-05-05T03:58:38.020Z,76.73
2023-05-05T04:01:04.993Z,77.02
2023-05-05T04:03:31.570Z,77.19
2023-05-05T04:05:58.095Z,77.44
2023-05-05T04:08:24.636Z,77.75
2023-05-05T04:10:51.167Z,77.65
2023-05-05T04:13:17.738Z,77.65
2023-05-05T04:15:45.941Z,77.24
2023-05-05T04:18:12.545Z,77.18
2023-05-05T04:20:39.123Z,77.03
2023-05-05T04:23:05.664Z,77.21
2023-05-05T04:25:32.666Z,77.10
2023-05-05T04:27:58.993Z,77.19
2023-05-05T04:30:25.424Z,77.15
2023-05-05T04:32:51.884Z,77.35
2023-05-05T04:35:18.302Z,77.18
2023-05-05T04:37:44.708Z,77.38
2023-05-05T04:40:11.450Z,77.65
2023-05-05T04:42:37.866Z,77.98
2023-05-05T04:45:04.841Z,78.06
2023-05-05T04:47:31.210Z,77.97
2023-05-05T04:49:57.714Z,77.77
2023-05-05T04:52:24.100Z,77.40
2023-05-05T04:54:50.525Z,77.38
2023-05-05T04:57:16.916Z,77.26
2023-05-05T04:59:43.359Z,77.19
2023-05-05T05:02:09.809Z,77.01
2023-05-05T05:04:36.232Z,76.83
2023-05-05T05:07:02.759Z,76.86
2023-05-05T05:09:29.209Z,78.04
2023-05-05T05:12:00.577Z,79.43
2023-05-05T05:14:28.204Z,79.41
2023-05-05T05:16:54.919Z,78.06
2023-05-05T05:19:21.701Z,78.14
2023-05-05T05:21:48.121Z,77.38
2023-05-05T05:24:14.549Z,75.63
2023-05-05T05:26:40.968Z,74.87
2023-05-05T05:29:07.392Z,74.39
2023-05-05T05:31:34.483Z,74.51
2023-05-05T05:34:01.006Z,74.56
2023-05-05T05:36:27.405Z,74.92
2023-05-05T05:38:53.845Z,76.18
2023-05-05T05:41:20.290Z,74.42
2023-05-05T05:43:46.685Z,70.94
2023-05-05T05:46:13.138Z,69.39
2023-05-05T05:48:39.591Z,67.71
2023-05-05T05:51:06.070Z,66.82
2023-05-05T05:53:32.912Z,66.63
2023-05-05T05:55:59.469Z,66.55
2023-05-05T05:58:25.905Z,65.09
2023-05-05T06:00:52.373Z,63.99
2023-05-05T06:03:19.008Z,62.83
2023-05-05T06:05:46.510Z,60.72
2023-05-05T06:08:12.987Z,54.47
2023-05-05T06:10:39.907Z,51.71
2023-05-05T06:13:06.469Z,50.29
2023-05-05T06:15:32.939Z,50.90
2023-05-05T06:17:59.375Z,51.61
2023-05-05T06:20:26.173Z,52.06
2023-05-05T06:22:52.999Z,52.48
2023-05-05T06:25:19.471Z,53.76
2023-05-05T06:27:46.262Z,52.86
2023-05-05T06:30:13.288Z,51.86
2023-05-05T06:32:39.724Z,50.48
2023-05-05T06:35:07.122Z,47.76
2023-05-05T06:37:33.545Z,46.35
2023-05-05T06:40:00.048Z,46.37
2023-05-05T06:42:26.460Z,44.75
2023-05-05T06:44:52.956Z,43.53
2023-05-05T06:47:19.479Z,43.00
2023-05-05T06:49:45.933Z,43.16
2023-05-05T06:52:12.633Z,42.33
2023-05-05T06:54:39.052Z,41.86
2023-05-05T06:57:05.630Z,41.51
2023-05-05T06:59:32.479Z,41.58
2023-05-05T07:01:59.344Z,41.15
2023-05-05T07:04:26.778Z,40.75
2023-05-05T07:06:55.166Z,40.07
2023-05-05T07:09:21.711Z,39.18
2023-05-05T07:11:48.171Z,40.28
2023-05-05T07:14:14.595Z,40.62
2023-05-05T07:16:41.443Z,39.53
2023-05-05T07:19:07.959Z,41.13
2023-05-05T07:21:35.031Z,40.71
2023-05-05T07:24:03.160Z,41.65
2023-05-05T07:26:29.624Z,41.89
2023-05-05T07:28:58.601Z,40.92
2023-05-05T07:31:25.966Z,41.53
2023-05-05T07:33:52.418Z,41.65
2023-05-05T07:36:18.856Z,41.43
2023-05-05T07:38:45.300Z,42.09
2023-05-05T07:41:12.966Z,40.92
2023-05-05T07:43:43.485Z,41.88
2023-05-05T07:46:10.916Z,41.72
2023-05-05T07:48:37.516Z,41.68
2023-05-05T07:51:03.998Z,41.34
2023-05-05T07:53:30.949Z,40.08
2023-05-05T07:55:57.357Z,41.49
2023-05-05T07:58:24.000Z,42.46
2023-05-05T08:00:51.139Z,40.77
2023-05-05T08:03:20.058Z,40.62
2023-05-05T08:05:46.882Z,40.53
2023-05-05T08:08:13.306Z,40.99
2023-05-05T08:10:39.876Z,40.88
2023-05-05T08:13:06.437Z,40.95
2023-05-05T08:15:32.972Z,41.31
2023-05-05T08:17:59.463Z,40.85
2023-05-05T08:20:29.086Z,39.58
2023-05-05T08:22:55.637Z,40.60
2023-05-05T08:25:25.101Z,41.14
2023-05-05T08:27:51.544Z,40.31
2023-05-05T08:30:21.992Z,39.90
2023-05-05T08:32:48.608Z,39.82
2023-05-05T08:35:15.077Z,37.56
2023-05-05T08:37:41.570Z,36.73
2023-05-05T08:40:11.072Z,37.91
2023-05-05T08:42:39.065Z,38.11
2023-05-05T08:45:08.268Z,36.96
2023-05-05T08:47:36.745Z,37.73
2023-05-05T08:50:05.594Z,38.60
2023-05-05T08:52:40.337Z,37.15
2023-05-05T08:55:30.086Z,38.52
2023-05-05T08:57:57.704Z,36.91
2023-05-05T09:00:27.154Z,37.44
2023-05-05T09:02:56.746Z,36.81
2023-05-05T09:05:23.876Z,36.14
2023-05-05T09:07:50.653Z,37.29
2023-05-05T09:10:18.026Z,37.89
2023-05-05T09:12:44.496Z,38.07
2023-05-05T09:15:13.116Z,37.90
2023-05-05T09:17:40.555Z,37.14
2023-05-05T09:20:09.152Z,39.33
2023-05-05T09:22:42.756Z,38.19
2023-05-05T09:25:14.520Z,37.48
2023-05-05T09:27:47.082Z,37.63
2023-05-05T09:30:18.486Z,37.31
2023-05-05T09:32:49.682Z,36.51
2023-05-05T09:35:17.163Z,37.04
2023-05-05T09:37:43.838Z,38.01
2023-05-05T09:40:10.775Z,37.60
2023-05-05T09:42:38.031Z,38.12
2023-05-05T09:45:19.653Z,38.33
2023-05-05T09:47:47.998Z,38.60
2023-05-05T09:50:16.309Z,36.71
2023-05-05T09:52:43.304Z,36.21
2023-05-05T09:55:17.842Z,36.33
2023-05-05T09:57:44.273Z,36.47
2023-05-05T10:00:11.509Z,35.36
2023-05-05T10:02:39.413Z,34.47
2023-05-05T10:05:11.715Z,36.65
2023-05-05T10:07:41.128Z,35.40
2023-05-05T10:10:17.942Z,35.07
2023-05-05T10:12:47.671Z,33.81
2023-05-05T10:15:15.944Z,34.85
2023-05-05T10:18:06.062Z,33.76
2023-05-05T10:20:37.887Z,33.31
2023-05-05T10:23:06.935Z,33.86
2023-05-05T10:25:41.603Z,35.11
2023-05-05T10:28:11.826Z,35.27
2023-05-05T10:30:43.899Z,34.24
2023-05-05T10:35:55.488Z,34.03
2023-05-05T10:38:24.844Z,33.60
2023-05-05T10:40:54.328Z,31.54
2023-05-05T10:43:21.148Z,32.55
2023-05-05T10:45:48.408Z,32.88
2023-05-05T10:48:22.799Z,32.84
2023-05-05T10:50:56.538Z,33.43
2023-05-05T10:53:32.704Z,33.52
2023-05-05T10:56:26.576Z,33.89
2023-05-05T10:58:59.811Z,33.46
2023-05-05T11:01:34.686Z,32.18
2023-05-05T11:04:20.251Z,32.83
2023-05-05T11:07:21.394Z,33.94
2023-05-05T11:10:01.991Z,33.92
2023-05-05T11:12:29.733Z,33.92
2023-05-05T11:15:23.815Z,32.87
2023-05-05T11:17:50.521Z,33.34
2023-05-05T11:20:17.346Z,32.60
2023-05-05T11:23:02.252Z,32.83
2023-05-05T11:25:35.034Z,33.25
2023-05-05T11:28:16.322Z,32.99
2023-05-05T11:30:55.333Z,31.87
2023-05-05T11:33:32.672Z,32.79
2023-05-05T11:36:01.837Z,32.80
2023-05-05T11:38:36.099Z,34.13
2023-05-05T11:41:37.350Z,34.20
2023-05-05T11:44:19.726Z,32.41
2023-05-05T11:46:52.405Z,33.25
2023-05-05T11:49:28.574Z,32.67
2023-05-05T11:52:03.802Z,31.75
2023-05-05T11:54:30.913Z,32.71
2023-05-05T11:56:59.138Z,33.02
2023-05-05T11:59:25.853Z,31.71
2023-05-05T12:01:52.630Z,32.43
2023-05-05T12:04:21.319Z,32.88
2023-05-05T12:06:49.021Z,33.53
2023-05-05T12:09:16.891Z,32.60
2023-05-05T12:11:53.856Z,31.02
2023-05-05T12:14:21.497Z,31.86
2023-05-05T12:16:58.694Z,31.63
2023-05-05T12:19:33.115Z,31.90
2023-05-05T12:22:02.435Z,31.11
2023-05-05T12:24:30.450Z,29.32
2023-05-05T12:27:13.491Z,30.90
2023-05-05T12:29:40.001Z,31.43
2023-05-05T12:32:06.539Z,30.95
2023-05-05T12:34:33.368Z,32.22
2023-05-05T12:36:59.954Z,32.19
2023-05-05T12:39:36.513Z,32.01
2023-05-05T12:42:04.005Z,32.04
2023-05-05T12:44:40.606Z,31.33
2023-05-05T12:47:07.686Z,31.98
2023-05-05T12:49:50.856Z,32.56
2023-05-05T12:52:18.340Z,32.93
2023-05-05T12:54:54.865Z,32.70
2023-05-05T12:57:22.531Z,32.68
2023-05-05T12:59:49.885Z,32.88
2023-05-05T13:02:16.948Z,33.78
2023-05-05T13:04:54.021Z,32.31
2023-05-05T13:07:21.780Z,33.01
2023-05-05T13:09:50.088Z,33.14
2023-05-05T13:12:21.098Z,32.67
2023-05-05T13:14:48.599Z,32.64
2023-05-05T13:17:15.191Z,32.38
2023-05-05T13:19:42.581Z,33.11
2023-05-05T13:22:10.162Z,32.58
2023-05-05T13:24:49.781Z,32.71
2023-05-05T13:27:18.519Z,31.92
2023-05-05T13:29:45.113Z,32.04
2023-05-05T13:32:11.703Z,32.53
2023-05-05T13:34:39.214Z,33.02
2023-05-05T13:37:06.039Z,33.95
2023-05-05T13:39:32.501Z,33.34
2023-05-05T13:41:58.937Z,32.75
2023-05-05T13:44:25.477Z,32.47
2023-05-05T13:46:51.861Z,33.40
2023-05-05T13:49:18.422Z,33.56
2023-05-05T13:51:46.890Z,33.20
2023-05-05T13:54:13.640Z,32.88
2023-05-05T13:56:40.106Z,32.52
2023-05-05T13:59:06.521Z,34.14
2023-05-05T14:01:33.117Z,32.39
2023-05-05T14:03:59.794Z,32.21
2023-05-05T14:06:27.764Z,32.55
2023-05-05T14:08:54.192Z,33.17
2023-05-05T14:11:21.540Z,32.21
2023-05-05T14:13:48.969Z,32.09
2023-05-05T14:16:15.603Z,32.85
2023-05-05T14:18:42.444Z,32.93
2023-05-05T14:21:09.140Z,32.81
2023-05-05T14:23:35.573Z,32.31
2023-05-05T14:26:02.175Z,32.37
2023-05-05T14:28:28.506Z,32.35
2023-05-05T14:30:54.945Z,32.69
2023-05-05T14:33:22.231Z,31.57
2023-05-05T14:35:48.789Z,31.71
2023-05-05T14:38:15.265Z,32.22
2023-05-05T14:40:41.728Z,32.67
2023-05-05T14:43:08.148Z,32.87
2023-05-05T14:45:34.663Z,33.54
2023-05-05T14:48:01.164Z,34.03
2023-05-05T14:50:27.539Z,33.94
2023-05-05T14:52:53.963Z,32.69
2023-05-05T14:55:20.405Z,33.28
2023-05-05T14:57:46.897Z,32.96
2023-05-05T15:00:13.956Z,31.92
2023-05-05T15:02:40.507Z,32.62
2023-05-05T15:05:07.812Z,31.98
2023-05-05T15:07:34.514Z,31.68
2023-05-05T15:10:00.954Z,31.57
2023-05-05T15:12:27.528Z,31.10
2023-05-05T15:14:55.353Z,31.62
2023-05-05T15:17:22.150Z,32.08
2023-05-05T15:19:48.671Z,32.56
2023-05-05T15:22:15.134Z,32.83
2023-05-05T15:24:41.604Z,33.66
2023-05-05T15:27:08.223Z,33.67
2023-05-05T15:29:34.551Z,32.78
2023-05-05T15:32:01.183Z,32.70
2023-05-05T15:34:28.214Z,31.88
2023-05-05T15:36:54.658Z,32.08
2023-05-05T15:39:21.256Z,32.73
2023-05-05T15:41:47.674Z,32.55
2023-05-05T15:44:14.114Z,32.58
2023-05-05T15:46:41.176Z,32.52
2023-05-05T15:49:07.668Z,32.73
2023-05-05T15:51:34.110Z,33.42
2023-05-05T15:54:00.592Z,33.78
2023-05-05T15:56:27.588Z,34.20
2023-05-05T15:58:54.378Z,34.65
2023-05-05T16:01:21.185Z,34.82
2023-05-05T16:03:47.627Z,35.46
2023-05-05T16:06:14.138Z,35.64
2023-05-05T16:08:41.632Z,35.60
2023-05-05T16:11:08.085Z,35.56
2023-05-05T16:13:34.579Z,35.75
2023-05-05T16:16:01.458Z,34.96
2023-05-05T16:18:27.888Z,35.05
2023-05-05T16:20:54.511Z,34.70
2023-05-05T16:23:21.040Z,35.42
2023-05-05T16:25:47.507Z,36.91
2023-05-05T16:28:13.966Z,37.57
2023-05-05T16:30:42.739Z,37.25
2023-05-05T16:33:09.468Z,37.07
2023-05-05T16:35:36.265Z,36.90
2023-05-05T16:38:02.581Z,36.50
2023-05-05T16:40:29.433Z,35.86
2023-05-05T16:42:55.809Z,35.55
2023-05-05T16:45:22.554Z,36.03
2023-05-05T16:47:49.084Z,36.43
2023-05-05T16:50:17.324Z,36.58
2023-05-05T16:52:43.750Z,37.28
2023-05-05T16:55:10.465Z,37.45
2023-05-05T16:57:37.100Z,37.56
2023-05-05T17:00:05.361Z,38.02
2023-05-05T17:02:31.863Z,38.43
2023-05-05T17:04:58.369Z,39.12
2023-05-05T17:07:24.822Z,40.77
2023-05-05T17:09:51.381Z,41.72
2023-05-05T17:12:17.928Z,42.24
2023-05-05T17:14:45.422Z,42.94
2023-05-05T17:17:12.012Z,43.76
2023-05-05T17:19:38.500Z,44.07
2023-05-05T17:22:04.998Z,44.07
2023-05-05T17:24:31.522Z,44.43
2023-05-05T17:26:58.373Z,44.18
2023-05-05T17:29:24.794Z,44.35
2023-05-05T17:31:51.771Z,43.83
2023-05-05T17:34:18.290Z,43.91
2023-05-05T17:36:44.853Z,43.96
2023-05-05T17:39:11.484Z,43.78
2023-05-05T17:41:38.322Z,43.48
2023-05-05T17:44:04.777Z,43.23
2023-05-05T17:46:31.704Z,43.42
2023-05-05T17:48:58.250Z,43.19
2023-05-05T17:51:25.045Z,43.09
2023-05-05T17:53:51.350Z,43.53
2023-05-05T17:56:17.856Z,43.67
2023-05-05T17:58:44.234Z,43.96
2023-05-05T18:01:20.301Z,43.88
2023-05-05T18:03:46.784Z,43.97
2023-05-05T18:06:13.257Z,44.08
2023-05-05T18:08:39.657Z,44.07
2023-05-05T18:11:06.191Z,43.77
2023-05-05T18:13:32.610Z,44.01
2023-05-05T18:15:59.082Z,44.16
2023-05-05T18:18:26.191Z,44.09
2023-05-05T18:20:52.764Z,43.98
2023-05-05T18:23:19.215Z,43.97
2023-05-05T18:25:46.451Z,44.20
2023-05-05T18:28:12.841Z,44.57
2023-05-05T18:30:39.255Z,44.07
2023-05-05T18:33:05.804Z,43.78
2023-05-05T18:35:32.255Z,44.15
2023-05-05T18:37:58.660Z,44.28
2023-05-05T18:40:25.126Z,44.36
2023-05-05T18:42:51.862Z,44.42
2023-05-05T18:45:18.316Z,44.81
2023-05-05T18:47:44.777Z,44.69
2023-05-05T18:50:11.428Z,44.62
2023-05-05T18:52:37.933Z,44.08
2023-05-05T18:55:04.602Z,44.06
2023-05-05T18:57:30.985Z,44.17
2023-05-05T18:59:57.453Z,44.06
2023-05-05T19:02:23.866Z,43.90
2023-05-05T19:04:50.338Z,43.87
2023-05-05T19:07:27.907Z,43.49
2023-05-05T19:10:01.350Z,43.64
2023-05-05T19:12:27.755Z,44.32
2023-05-05T19:14:54.192Z,44.18
2023-05-05T19:17:20.578Z,43.93
2023-05-05T19:19:47.026Z,44.20
2023-05-05T19:22:13.612Z,44.06
2023-05-05T19:24:40.040Z,43.73
2023-05-05T19:27:08.085Z,43.90
2023-05-05T19:29:34.515Z,44.07
2023-05-05T19:32:00.951Z,44.45
2023-05-05T19:34:27.412Z,44.98
2023-05-05T19:36:53.788Z,45.06
2023-05-05T19:39:20.289Z,44.62
2023-05-05T19:41:46.697Z,45.06
2023-05-05T19:44:13.180Z,45.02
2023-05-05T19:46:39.664Z,45.36
2023-05-05T19:49:06.277Z,45.28
2023-05-05T19:51:32.728Z,45.28
2023-05-05T19:53:59.474Z,44.81
2023-05-05T19:56:26.226Z,44.69
2023-05-05T19:58:57.479Z,44.30
2023-05-05T20:01:24.048Z,43.92
2023-05-05T20:03:51.254Z,44.10
2023-05-05T20:06:17.758Z,44.49
2023-05-05T20:08:44.183Z,44.58
2023-05-05T20:11:10.631Z,44.60
2023-05-05T20:13:38.257Z,44.50
2023-05-05T20:16:05.990Z,44.36
2023-05-05T20:18:32.898Z,44.24
2023-05-05T20:20:59.357Z,44.73
2023-05-05T20:23:26.171Z,45.05
2023-05-05T20:25:53.768Z,45.54
2023-05-05T20:28:20.809Z,46.46
2023-05-05T20:30:47.268Z,46.94
2023-05-05T20:33:13.717Z,47.88
2023-05-05T20:35:40.147Z,48.46
2023-05-05T20:38:06.608Z,48.95
2023-05-05T20:40:33.706Z,49.10
2023-05-05T20:43:00.254Z,49.18
2023-05-05T20:45:26.728Z,48.99
2023-05-05T20:47:53.361Z,49.32
2023-05-05T20:50:22.684Z,49.56
2023-05-05T20:52:49.603Z,49.47
2023-05-05T20:55:16.088Z,49.30
2023-05-05T20:57:42.536Z,49.30
2023-05-05T21:00:09.830Z,49.69
2023-05-05T21:02:37.416Z,49.86
2023-05-05T21:05:04.280Z,50.69
2023-05-05T21:07:33.098Z,50.74
2023-05-05T21:10:00.753Z,50.70
2023-05-05T21:12:29.212Z,51.07
2023-05-05T21:14:59.471Z,51.00
2023-05-05T21:17:27.077Z,51.19
2023-05-05T21:19:54.690Z,51.97
2023-05-05T21:22:21.521Z,52.79
2023-05-05T21:24:48.254Z,52.66
2023-05-05T21:27:15.220Z,52.97
2023-05-05T21:29:41.562Z,53.17
2023-05-05T21:32:09.340Z,52.57
2023-05-05T21:34:36.424Z,52.61
2023-05-05T21:37:03.015Z,52.77
2023-05-05T21:39:30.896Z,52.74
2023-05-05T21:41:57.306Z,52.54
2023-05-05T21:44:25.638Z,52.46
2023-05-05T21:46:53.280Z,52.46
2023-05-05T21:49:20.009Z,52.48
2023-05-05T21:51:46.625Z,52.86
2023-05-05T21:54:13.282Z,53.21
2023-05-05T21:56:39.767Z,53.35
2023-05-05T21:59:06.247Z,53.75
2023-05-05T22:01:32.930Z,54.01
2023-05-05T22:03:59.518Z,54.92
2023-05-05T22:06:26.141Z,55.22
2023-05-05T22:08:52.599Z,55.33
2023-05-05T22:11:19.247Z,55.34
2023-05-05T22:13:46.445Z,54.74
2023-05-05T22:16:14.310Z,54.40
2023-05-05T22:18:40.736Z,53.85
2023-05-05T22:21:07.162Z,53.51
2023-05-05T22:23:33.660Z,53.59
2023-05-05T22:26:00.104Z,53.72
2023-05-05T22:28:27.709Z,53.20
2023-05-05T22:30:54.141Z,52.93
2023-05-05T22:33:20.678Z,52.95
2023-05-05T22:35:47.343Z,52.91
2023-05-05T22:38:13.732Z,53.11
2023-05-05T22:40:40.257Z,53.15
2023-05-05T22:43:06.702Z,53.68
2023-05-05T22:45:33.249Z,53.99
2023-05-05T22:47:59.757Z,54.49
2023-05-05T22:50:26.272Z,54.53
2023-05-05T22:52:52.670Z,55.36
2023-05-05T22:55:19.286Z,56.08
2023-05-05T22:57:45.924Z,59.86
2023-05-05T23:00:12.942Z,59.50
2023-05-05T23:02:40.183Z,59.80
2023-05-05T23:05:07.464Z,60.94
2023-05-05T23:07:34.045Z,61.83
2023-05-05T23:10:00.484Z,63.09
2023-05-05T23:12:26.968Z,64.12
2023-05-05T23:14:53.423Z,65.14
2023-05-05T23:17:19.906Z,65.30
2023-05-05T23:19:48.116Z,65.60
2023-05-05T23:22:15.053Z,66.48
2023-05-05T23:24:41.742Z,67.06
2023-05-05T23:27:08.151Z,68.02
2023-05-05T23:29:34.613Z,69.30
2023-05-05T23:32:01.005Z,70.84
2023-05-05T23:34:27.420Z,70.39
2023-05-05T23:36:53.814Z,70.61
2023-05-05T23:39:20.273Z,71.13
2023-05-05T23:41:46.707Z,71.93
2023-05-05T23:44:13.304Z,72.11
2023-05-05T23:46:39.895Z,72.35
2023-05-05T23:49:06.363Z,72.71
2023-05-05T23:51:33.045Z,72.66
2023-05-05T23:53:59.578Z,73.11
2023-05-05T23:56:26.605Z,73.17
2023-05-05T23:58:53.257Z,73.59
